Colombo, Sri Lanka
Current Conditions -  °F | °C
As of 6:10 PM on Wednesday 22 Oct 2014 (Local Time) from VCBI Reporting Station
Scattered Clouds Scattered Clouds  
Wind Chill: 84°   Ceiling: Unl
Heat Index: 92°   Visibility: 6mi
Dew Point: 75°   Wind: 8mph
Humidity: 74%   Direction: 270°W
Pressure: 29.8"   Gusts: NA
Location:  6.93°N, 79.85°E
Report Text: VCBI 221210Z 27007KT 9999 SCT016 FEW020CB 29/24 Q1009 NOSIG
Loading
Personal Weather Stations






























Interactive Weather Map
Tropical Storm Tracking
New forecast layout! Learn more

10-Day Weather Forecast

Advertisements
Track Severe Weather on mobile